sensor_id;sensor_type;location;lat;lon;timestamp;P1;durP1;ratioP1;P2;durP2;ratioP2
74630;SDS011;63138;55.082;38.804;2023-09-19T00:00:38;147.40;;;21.47;;
74630;SDS011;63138;55.082;38.804;2023-09-19T00:03:05;35.97;;;17.38;;
74630;SDS011;63138;55.082;38.804;2023-09-19T00:05:35;33.28;;;17.67;;
74630;SDS011;63138;55.082;38.804;2023-09-19T00:08:21;31.92;;;17.25;;
74630;SDS011;63138;55.082;38.804;2023-09-19T00:10:50;30.67;;;15.47;;
74630;SDS011;63138;55.082;38.804;2023-09-19T00:13:16;52.83;;;18.08;;
74630;SDS011;63138;55.082;38.804;2023-09-19T00:15:45;41.45;;;20.17;;
74630;SDS011;63138;55.082;38.804;2023-09-19T00:18:17;33.10;;;17.20;;
74630;SDS011;63138;55.082;38.804;2023-09-19T00:20:47;51.05;;;21.50;;
74630;SDS011;63138;55.082;38.804;2023-09-19T00:23:16;51.35;;;22.65;;
74630;SDS011;63138;55.082;38.804;2023-09-19T00:25:44;53.95;;;24.48;;
74630;SDS011;63138;55.082;38.804;2023-09-19T00:28:10;45.33;;;21.55;;
74630;SDS011;63138;55.082;38.804;2023-09-19T00:30:36;62.67;;;25.97;;
74630;SDS011;63138;55.082;38.804;2023-09-19T00:33:04;41.45;;;20.42;;
74630;SDS011;63138;55.082;38.804;2023-09-19T00:35:33;39.97;;;20.13;;
74630;SDS011;63138;55.082;38.804;2023-09-19T00:37:59;42.53;;;21.50;;
74630;SDS011;63138;55.082;38.804;2023-09-19T00:40:24;43.10;;;21.13;;
74630;SDS011;63138;55.082;38.804;2023-09-19T00:42:51;40.90;;;21.02;;
74630;SDS011;63138;55.082;38.804;2023-09-19T00:45:18;48.13;;;21.42;;
74630;SDS011;63138;55.082;38.804;2023-09-19T00:47:46;45.15;;;22.45;;
74630;SDS011;63138;55.082;38.804;2023-09-19T00:50:21;46.03;;;22.50;;
74630;SDS011;63138;55.082;38.804;2023-09-19T00:52:52;164.07;;;30.95;;
74630;SDS011;63138;55.082;38.804;2023-09-19T00:55:23;251.57;;;40.03;;
74630;SDS011;63138;55.082;38.804;2023-09-19T00:57:49;198.98;;;35.42;;
74630;SDS011;63138;55.082;38.804;2023-09-19T01:00:15;257.75;;;37.38;;
74630;SDS011;63138;55.082;38.804;2023-09-19T01:02:44;161.67;;;30.87;;
74630;SDS011;63138;55.082;38.804;2023-09-19T01:05:12;205.32;;;30.90;;
74630;SDS011;63138;55.082;38.804;2023-09-19T01:07:38;266.02;;;35.05;;
74630;SDS011;63138;55.082;38.804;2023-09-19T01:10:07;226.00;;;32.13;;
74630;SDS011;63138;55.082;38.804;2023-09-19T01:15:04;194.87;;;29.13;;
74630;SDS011;63138;55.082;38.804;2023-09-19T01:17:46;163.73;;;24.63;;
74630;SDS011;63138;55.082;38.804;2023-09-19T01:31:09;101.63;;;19.90;;
74630;SDS011;63138;55.082;38.804;2023-09-19T01:36:22;189.17;;;23.87;;
74630;SDS011;63138;55.082;38.804;2023-09-19T01:38:50;131.05;;;19.58;;
74630;SDS011;63138;55.082;38.804;2023-09-19T01:41:21;132.48;;;21.15;;
74630;SDS011;63138;55.082;38.804;2023-09-19T01:43:52;105.05;;;19.90;;
74630;SDS011;63138;55.082;38.804;2023-09-19T01:46:21;96.67;;;19.43;;
74630;SDS011;63138;55.082;38.804;2023-09-19T01:48:58;94.40;;;20.23;;
74630;SDS011;63138;55.082;38.804;2023-09-19T01:51:51;155.68;;;23.48;;
74630;SDS011;63138;55.082;38.804;2023-09-19T01:54:30;325.83;;;34.58;;
74630;SDS011;63138;55.082;38.804;2023-09-19T01:59:54;112.53;;;19.73;;
74630;SDS011;63138;55.082;38.804;2023-09-19T02:02:39;65.90;;;16.27;;
74630;SDS011;63138;55.082;38.804;2023-09-19T02:05:10;415.77;;;38.45;;
74630;SDS011;63138;55.082;38.804;2023-09-19T02:07:38;398.20;;;40.35;;
74630;SDS011;63138;55.082;38.804;2023-09-19T02:10:04;129.13;;;22.75;;
74630;SDS011;63138;55.082;38.804;2023-09-19T02:12:31;111.33;;;23.60;;
74630;SDS011;63138;55.082;38.804;2023-09-19T02:15:02;129.45;;;22.35;;
74630;SDS011;63138;55.082;38.804;2023-09-19T02:17:29;147.88;;;22.98;;
74630;SDS011;63138;55.082;38.804;2023-09-19T02:19:58;112.28;;;19.38;;
74630;SDS011;63138;55.082;38.804;2023-09-19T02:22:29;72.88;;;17.27;;
74630;SDS011;63138;55.082;38.804;2023-09-19T02:24:55;164.27;;;19.83;;
74630;SDS011;63138;55.082;38.804;2023-09-19T02:27:23;115.65;;;19.30;;
74630;SDS011;63138;55.082;38.804;2023-09-19T02:29:50;114.63;;;14.75;;
74630;SDS011;63138;55.082;38.804;2023-09-19T02:32:17;134.05;;;16.65;;
74630;SDS011;63138;55.082;38.804;2023-09-19T02:34:43;115.18;;;17.77;;
74630;SDS011;63138;55.082;38.804;2023-09-19T02:37:09;131.97;;;17.90;;
74630;SDS011;63138;55.082;38.804;2023-09-19T02:39:35;104.13;;;16.85;;
74630;SDS011;63138;55.082;38.804;2023-09-19T02:42:02;165.60;;;21.05;;
74630;SDS011;63138;55.082;38.804;2023-09-19T02:44:29;214.73;;;23.37;;
74630;SDS011;63138;55.082;38.804;2023-09-19T02:46:55;183.50;;;23.27;;
74630;SDS011;63138;55.082;38.804;2023-09-19T02:49:22;135.52;;;18.95;;
74630;SDS011;63138;55.082;38.804;2023-09-19T02:51:48;126.70;;;20.33;;
74630;SDS011;63138;55.082;38.804;2023-09-19T02:54:15;102.50;;;15.27;;
74630;SDS011;63138;55.082;38.804;2023-09-19T02:56:44;132.97;;;17.43;;
74630;SDS011;63138;55.082;38.804;2023-09-19T02:59:28;102.68;;;16.33;;
74630;SDS011;63138;55.082;38.804;2023-09-19T03:01:56;121.07;;;19.40;;
74630;SDS011;63138;55.082;38.804;2023-09-19T03:04:22;81.72;;;16.30;;
74630;SDS011;63138;55.082;38.804;2023-09-19T03:06:48;131.30;;;16.23;;
74630;SDS011;63138;55.082;38.804;2023-09-19T03:09:16;100.13;;;17.87;;
74630;SDS011;63138;55.082;38.804;2023-09-19T03:11:42;104.97;;;16.60;;
74630;SDS011;63138;55.082;38.804;2023-09-19T03:14:09;48.15;;;13.05;;
74630;SDS011;63138;55.082;38.804;2023-09-19T03:16:36;141.73;;;21.95;;
74630;SDS011;63138;55.082;38.804;2023-09-19T03:19:03;50.87;;;15.27;;
74630;SDS011;63138;55.082;38.804;2023-09-19T03:21:31;51.17;;;13.25;;
74630;SDS011;63138;55.082;38.804;2023-09-19T03:23:57;99.75;;;16.55;;
74630;SDS011;63138;55.082;38.804;2023-09-19T03:26:23;33.20;;;12.80;;
74630;SDS011;63138;55.082;38.804;2023-09-19T03:28:51;39.63;;;13.07;;
74630;SDS011;63138;55.082;38.804;2023-09-19T03:31:17;87.50;;;13.48;;
74630;SDS011;63138;55.082;38.804;2023-09-19T03:33:45;96.07;;;15.45;;
74630;SDS011;63138;55.082;38.804;2023-09-19T03:36:11;34.13;;;12.80;;
74630;SDS011;63138;55.082;38.804;2023-09-19T03:38:39;80.13;;;17.75;;
74630;SDS011;63138;55.082;38.804;2023-09-19T03:41:05;32.28;;;10.80;;
74630;SDS011;63138;55.082;38.804;2023-09-19T03:43:34;72.72;;;19.38;;
74630;SDS011;63138;55.082;38.804;2023-09-19T03:46:03;86.00;;;22.03;;
74630;SDS011;63138;55.082;38.804;2023-09-19T03:48:33;88.55;;;23.95;;
74630;SDS011;63138;55.082;38.804;2023-09-19T03:50:59;123.28;;;27.20;;
74630;SDS011;63138;55.082;38.804;2023-09-19T03:53:25;93.03;;;25.55;;
74630;SDS011;63138;55.082;38.804;2023-09-19T03:55:52;123.00;;;24.43;;
74630;SDS011;63138;55.082;38.804;2023-09-19T03:58:18;80.30;;;17.13;;
74630;SDS011;63138;55.082;38.804;2023-09-19T04:00:44;50.28;;;16.92;;
74630;SDS011;63138;55.082;38.804;2023-09-19T04:03:10;52.22;;;14.07;;
74630;SDS011;63138;55.082;38.804;2023-09-19T04:05:45;39.17;;;10.83;;
74630;SDS011;63138;55.082;38.804;2023-09-19T04:08:12;46.83;;;12.40;;
74630;SDS011;63138;55.082;38.804;2023-09-19T04:10:38;28.30;;;10.52;;
74630;SDS011;63138;55.082;38.804;2023-09-19T04:13:04;28.98;;;9.18;;
74630;SDS011;63138;55.082;38.804;2023-09-19T04:15:30;59.67;;;13.40;;
74630;SDS011;63138;55.082;38.804;2023-09-19T04:17:55;68.78;;;13.13;;
74630;SDS011;63138;55.082;38.804;2023-09-19T04:20:21;59.20;;;12.38;;
74630;SDS011;63138;55.082;38.804;2023-09-19T04:22:50;45.43;;;12.00;;
74630;SDS011;63138;55.082;38.804;2023-09-19T04:25:16;54.80;;;9.57;;
74630;SDS011;63138;55.082;38.804;2023-09-19T04:27:44;28.23;;;12.07;;
74630;SDS011;63138;55.082;38.804;2023-09-19T04:30:10;30.25;;;11.30;;
74630;SDS011;63138;55.082;38.804;2023-09-19T04:32:37;25.80;;;11.32;;
74630;SDS011;63138;55.082;38.804;2023-09-19T04:35:06;24.03;;;11.27;;
74630;SDS011;63138;55.082;38.804;2023-09-19T04:37:39;25.75;;;11.15;;
74630;SDS011;63138;55.082;38.804;2023-09-19T04:40:06;25.33;;;10.65;;
74630;SDS011;63138;55.082;38.804;2023-09-19T04:42:40;20.17;;;9.95;;
74630;SDS011;63138;55.082;38.804;2023-09-19T04:45:07;31.40;;;11.93;;
74630;SDS011;63138;55.082;38.804;2023-09-19T04:47:35;45.80;;;15.77;;
74630;SDS011;63138;55.082;38.804;2023-09-19T04:50:13;26.60;;;13.93;;
74630;SDS011;63138;55.082;38.804;2023-09-19T04:52:42;25.65;;;13.73;;
74630;SDS011;63138;55.082;38.804;2023-09-19T04:55:13;27.35;;;13.05;;
74630;SDS011;63138;55.082;38.804;2023-09-19T04:57:46;28.00;;;13.60;;
74630;SDS011;63138;55.082;38.804;2023-09-19T05:00:13;23.47;;;10.77;;
74630;SDS011;63138;55.082;38.804;2023-09-19T05:02:43;23.10;;;12.70;;
74630;SDS011;63138;55.082;38.804;2023-09-19T05:05:09;23.17;;;12.55;;
74630;SDS011;63138;55.082;38.804;2023-09-19T05:07:42;40.58;;;11.95;;
74630;SDS011;63138;55.082;38.804;2023-09-19T05:10:09;34.03;;;13.32;;
74630;SDS011;63138;55.082;38.804;2023-09-19T05:12:38;30.00;;;14.50;;
74630;SDS011;63138;55.082;38.804;2023-09-19T05:15:05;31.95;;;13.90;;
74630;SDS011;63138;55.082;38.804;2023-09-19T05:17:34;28.35;;;14.40;;
74630;SDS011;63138;55.082;38.804;2023-09-19T05:20:01;28.05;;;16.23;;
74630;SDS011;63138;55.082;38.804;2023-09-19T05:22:42;27.60;;;14.40;;
74630;SDS011;63138;55.082;38.804;2023-09-19T05:25:09;31.00;;;14.70;;
74630;SDS011;63138;55.082;38.804;2023-09-19T05:27:35;25.05;;;13.48;;
74630;SDS011;63138;55.082;38.804;2023-09-19T05:30:01;23.75;;;14.52;;
74630;SDS011;63138;55.082;38.804;2023-09-19T05:32:29;21.10;;;11.45;;
74630;SDS011;63138;55.082;38.804;2023-09-19T05:34:54;22.77;;;12.43;;
74630;SDS011;63138;55.082;38.804;2023-09-19T05:37:21;23.17;;;12.65;;
74630;SDS011;63138;55.082;38.804;2023-09-19T05:39:48;23.13;;;12.35;;
74630;SDS011;63138;55.082;38.804;2023-09-19T05:42:14;15.88;;;9.95;;
74630;SDS011;63138;55.082;38.804;2023-09-19T05:44:40;21.23;;;12.60;;
74630;SDS011;63138;55.082;38.804;2023-09-19T05:47:06;24.67;;;13.60;;
74630;SDS011;63138;55.082;38.804;2023-09-19T05:49:35;23.67;;;14.40;;
74630;SDS011;63138;55.082;38.804;2023-09-19T05:52:04;25.27;;;13.20;;
74630;SDS011;63138;55.082;38.804;2023-09-19T05:54:30;20.80;;;12.70;;
74630;SDS011;63138;55.082;38.804;2023-09-19T05:56:56;20.90;;;13.18;;
74630;SDS011;63138;55.082;38.804;2023-09-19T05:59:23;19.83;;;11.57;;
74630;SDS011;63138;55.082;38.804;2023-09-19T06:01:49;19.40;;;9.73;;
74630;SDS011;63138;55.082;38.804;2023-09-19T06:04:15;21.17;;;10.73;;
74630;SDS011;63138;55.082;38.804;2023-09-19T06:06:41;16.65;;;9.82;;
74630;SDS011;63138;55.082;38.804;2023-09-19T06:09:07;20.73;;;11.00;;
74630;SDS011;63138;55.082;38.804;2023-09-19T06:11:34;19.95;;;11.30;;
74630;SDS011;63138;55.082;38.804;2023-09-19T06:14:01;18.90;;;11.32;;
74630;SDS011;63138;55.082;38.804;2023-09-19T06:16:28;20.23;;;10.68;;
74630;SDS011;63138;55.082;38.804;2023-09-19T06:18:55;17.40;;;10.30;;
74630;SDS011;63138;55.082;38.804;2023-09-19T06:21:21;23.90;;;11.00;;
74630;SDS011;63138;55.082;38.804;2023-09-19T06:23:51;15.90;;;9.25;;
74630;SDS011;63138;55.082;38.804;2023-09-19T06:26:17;16.83;;;10.27;;
74630;SDS011;63138;55.082;38.804;2023-09-19T06:28:43;16.90;;;9.40;;
74630;SDS011;63138;55.082;38.804;2023-09-19T06:31:09;19.27;;;10.05;;
74630;SDS011;63138;55.082;38.804;2023-09-19T06:33:38;19.77;;;8.65;;
74630;SDS011;63138;55.082;38.804;2023-09-19T06:36:05;15.02;;;10.32;;
74630;SDS011;63138;55.082;38.804;2023-09-19T06:38:31;17.88;;;9.50;;
74630;SDS011;63138;55.082;38.804;2023-09-19T06:41:03;17.63;;;9.20;;
74630;SDS011;63138;55.082;38.804;2023-09-19T06:43:32;16.23;;;9.30;;
74630;SDS011;63138;55.082;38.804;2023-09-19T06:45:59;14.52;;;9.52;;
74630;SDS011;63138;55.082;38.804;2023-09-19T06:48:26;14.05;;;8.88;;
74630;SDS011;63138;55.082;38.804;2023-09-19T06:50:55;17.15;;;10.32;;
74630;SDS011;63138;55.082;38.804;2023-09-19T06:53:23;16.03;;;10.30;;
74630;SDS011;63138;55.082;38.804;2023-09-19T06:55:51;19.95;;;15.00;;
74630;SDS011;63138;55.082;38.804;2023-09-19T06:58:17;21.60;;;17.88;;
74630;SDS011;63138;55.082;38.804;2023-09-19T07:00:42;19.67;;;15.37;;
74630;SDS011;63138;55.082;38.804;2023-09-19T07:03:10;26.50;;;16.60;;
74630;SDS011;63138;55.082;38.804;2023-09-19T07:05:38;18.70;;;14.18;;
74630;SDS011;63138;55.082;38.804;2023-09-19T07:08:08;19.73;;;10.90;;
74630;SDS011;63138;55.082;38.804;2023-09-19T07:10:37;17.80;;;10.70;;
74630;SDS011;63138;55.082;38.804;2023-09-19T07:13:06;14.70;;;9.67;;
74630;SDS011;63138;55.082;38.804;2023-09-19T07:15:36;11.63;;;8.30;;
74630;SDS011;63138;55.082;38.804;2023-09-19T07:18:13;14.98;;;10.02;;
74630;SDS011;63138;55.082;38.804;2023-09-19T07:20:40;12.75;;;8.15;;
74630;SDS011;63138;55.082;38.804;2023-09-19T07:23:15;18.67;;;10.35;;
74630;SDS011;63138;55.082;38.804;2023-09-19T07:25:43;14.13;;;9.67;;
74630;SDS011;63138;55.082;38.804;2023-09-19T07:28:11;16.58;;;9.93;;
74630;SDS011;63138;55.082;38.804;2023-09-19T07:30:37;15.52;;;9.75;;
74630;SDS011;63138;55.082;38.804;2023-09-19T07:33:04;14.80;;;10.70;;
74630;SDS011;63138;55.082;38.804;2023-09-19T07:35:31;14.93;;;7.70;;
74630;SDS011;63138;55.082;38.804;2023-09-19T07:37:57;17.75;;;8.73;;
74630;SDS011;63138;55.082;38.804;2023-09-19T07:40:23;13.55;;;10.18;;
74630;SDS011;63138;55.082;38.804;2023-09-19T07:43:12;14.38;;;9.32;;
74630;SDS011;63138;55.082;38.804;2023-09-19T07:45:38;13.80;;;9.45;;
74630;SDS011;63138;55.082;38.804;2023-09-19T07:48:05;19.37;;;10.93;;
74630;SDS011;63138;55.082;38.804;2023-09-19T07:50:33;16.27;;;9.68;;
74630;SDS011;63138;55.082;38.804;2023-09-19T07:52:59;9.98;;;6.47;;
74630;SDS011;63138;55.082;38.804;2023-09-19T07:55:25;14.57;;;9.40;;
74630;SDS011;63138;55.082;38.804;2023-09-19T07:58:16;28.95;;;14.00;;
74630;SDS011;63138;55.082;38.804;2023-09-19T08:00:42;19.67;;;12.20;;
74630;SDS011;63138;55.082;38.804;2023-09-19T08:03:07;15.80;;;10.35;;
74630;SDS011;63138;55.082;38.804;2023-09-19T08:05:34;14.60;;;9.30;;
74630;SDS011;63138;55.082;38.804;2023-09-19T08:08:01;14.52;;;9.13;;
74630;SDS011;63138;55.082;38.804;2023-09-19T08:10:55;13.95;;;8.23;;
74630;SDS011;63138;55.082;38.804;2023-09-19T08:13:23;21.10;;;9.85;;
74630;SDS011;63138;55.082;38.804;2023-09-19T08:15:50;13.77;;;10.02;;
74630;SDS011;63138;55.082;38.804;2023-09-19T08:18:18;16.53;;;10.47;;
74630;SDS011;63138;55.082;38.804;2023-09-19T08:20:52;18.10;;;10.88;;
74630;SDS011;63138;55.082;38.804;2023-09-19T08:23:18;18.63;;;10.43;;
74630;SDS011;63138;55.082;38.804;2023-09-19T08:25:45;15.52;;;9.73;;
74630;SDS011;63138;55.082;38.804;2023-09-19T08:28:12;17.00;;;9.95;;
74630;SDS011;63138;55.082;38.804;2023-09-19T08:30:43;14.40;;;8.87;;
74630;SDS011;63138;55.082;38.804;2023-09-19T08:33:08;16.75;;;11.30;;
74630;SDS011;63138;55.082;38.804;2023-09-19T08:35:35;13.70;;;7.75;;
74630;SDS011;63138;55.082;38.804;2023-09-19T08:38:03;17.80;;;10.32;;
74630;SDS011;63138;55.082;38.804;2023-09-19T08:40:29;15.70;;;7.67;;
74630;SDS011;63138;55.082;38.804;2023-09-19T08:42:59;18.02;;;9.65;;
74630;SDS011;63138;55.082;38.804;2023-09-19T08:45:26;16.42;;;9.32;;
74630;SDS011;63138;55.082;38.804;2023-09-19T08:50:33;19.02;;;10.38;;
74630;SDS011;63138;55.082;38.804;2023-09-19T08:53:12;19.87;;;10.37;;
74630;SDS011;63138;55.082;38.804;2023-09-19T08:55:45;19.25;;;9.75;;
74630;SDS011;63138;55.082;38.804;2023-09-19T08:58:14;15.45;;;10.30;;
74630;SDS011;63138;55.082;38.804;2023-09-19T09:00:45;13.30;;;8.23;;
74630;SDS011;63138;55.082;38.804;2023-09-19T09:03:14;14.30;;;8.27;;
74630;SDS011;63138;55.082;38.804;2023-09-19T09:05:44;16.33;;;9.47;;
74630;SDS011;63138;55.082;38.804;2023-09-19T09:08:12;18.98;;;9.20;;
74630;SDS011;63138;55.082;38.804;2023-09-19T09:10:39;17.77;;;9.82;;
74630;SDS011;63138;55.082;38.804;2023-09-19T09:13:08;15.60;;;8.60;;
74630;SDS011;63138;55.082;38.804;2023-09-19T09:15:35;15.38;;;9.10;;
74630;SDS011;63138;55.082;38.804;2023-09-19T09:18:02;13.10;;;8.87;;
74630;SDS011;63138;55.082;38.804;2023-09-19T09:20:30;14.07;;;9.27;;
74630;SDS011;63138;55.082;38.804;2023-09-19T09:22:56;14.85;;;8.80;;
74630;SDS011;63138;55.082;38.804;2023-09-19T09:25:51;12.80;;;8.85;;
74630;SDS011;63138;55.082;38.804;2023-09-19T09:28:44;14.02;;;9.15;;
74630;SDS011;63138;55.082;38.804;2023-09-19T09:31:24;14.27;;;9.53;;
74630;SDS011;63138;55.082;38.804;2023-09-19T09:33:53;13.45;;;9.45;;
74630;SDS011;63138;55.082;38.804;2023-09-19T09:36:37;11.30;;;8.05;;
74630;SDS011;63138;55.082;38.804;2023-09-19T09:39:05;13.55;;;8.93;;
74630;SDS011;63138;55.082;38.804;2023-09-19T09:41:44;12.43;;;8.75;;
74630;SDS011;63138;55.082;38.804;2023-09-19T09:44:15;13.70;;;8.47;;
74630;SDS011;63138;55.082;38.804;2023-09-19T09:46:45;12.73;;;8.70;;
74630;SDS011;63138;55.082;38.804;2023-09-19T09:49:18;12.35;;;8.85;;
74630;SDS011;63138;55.082;38.804;2023-09-19T09:52:02;13.32;;;8.93;;
74630;SDS011;63138;55.082;38.804;2023-09-19T09:54:57;13.60;;;9.13;;
74630;SDS011;63138;55.082;38.804;2023-09-19T09:57:32;17.60;;;9.53;;
74630;SDS011;63138;55.082;38.804;2023-09-19T10:00:00;14.25;;;8.95;;
74630;SDS011;63138;55.082;38.804;2023-09-19T10:02:39;16.98;;;8.73;;
74630;SDS011;63138;55.082;38.804;2023-09-19T10:05:12;14.75;;;8.63;;
74630;SDS011;63138;55.082;38.804;2023-09-19T10:07:45;13.98;;;8.82;;
74630;SDS011;63138;55.082;38.804;2023-09-19T10:10:38;13.43;;;7.73;;
74630;SDS011;63138;55.082;38.804;2023-09-19T10:13:11;13.88;;;8.63;;
74630;SDS011;63138;55.082;38.804;2023-09-19T10:15:43;12.50;;;8.15;;
74630;SDS011;63138;55.082;38.804;2023-09-19T10:18:21;10.88;;;6.85;;
74630;SDS011;63138;55.082;38.804;2023-09-19T10:20:48;14.27;;;9.05;;
74630;SDS011;63138;55.082;38.804;2023-09-19T10:23:17;16.83;;;7.87;;
74630;SDS011;63138;55.082;38.804;2023-09-19T10:25:49;16.52;;;8.90;;
74630;SDS011;63138;55.082;38.804;2023-09-19T10:28:16;13.98;;;8.32;;
74630;SDS011;63138;55.082;38.804;2023-09-19T10:30:49;11.07;;;7.32;;
74630;SDS011;63138;55.082;38.804;2023-09-19T10:33:23;14.50;;;8.80;;
74630;SDS011;63138;55.082;38.804;2023-09-19T10:35:54;13.60;;;7.77;;
74630;SDS011;63138;55.082;38.804;2023-09-19T10:38:25;16.77;;;8.38;;
74630;SDS011;63138;55.082;38.804;2023-09-19T10:40:54;15.48;;;7.82;;
74630;SDS011;63138;55.082;38.804;2023-09-19T10:43:26;15.05;;;8.20;;
74630;SDS011;63138;55.082;38.804;2023-09-19T10:46:05;18.40;;;8.65;;
74630;SDS011;63138;55.082;38.804;2023-09-19T10:48:34;11.57;;;7.40;;
74630;SDS011;63138;55.082;38.804;2023-09-19T10:51:03;12.98;;;8.00;;
74630;SDS011;63138;55.082;38.804;2023-09-19T10:56:26;19.15;;;8.88;;
74630;SDS011;63138;55.082;38.804;2023-09-19T10:59:05;14.88;;;8.52;;
74630;SDS011;63138;55.082;38.804;2023-09-19T11:01:42;13.90;;;7.60;;
74630;SDS011;63138;55.082;38.804;2023-09-19T11:09:52;14.85;;;8.23;;
74630;SDS011;63138;55.082;38.804;2023-09-19T11:15:06;11.63;;;7.93;;
74630;SDS011;63138;55.082;38.804;2023-09-19T11:28:42;10.33;;;8.27;;
74630;SDS011;63138;55.082;38.804;2023-09-19T11:30:45;11.45;;;6.68;;
74630;SDS011;63138;55.082;38.804;2023-09-19T11:36:13;9.65;;;7.13;;
74630;SDS011;63138;55.082;38.804;2023-09-19T11:43:51;12.48;;;8.13;;
74630;SDS011;63138;55.082;38.804;2023-09-19T11:49:29;15.82;;;7.60;;
74630;SDS011;63138;55.082;38.804;2023-09-19T11:51:57;15.95;;;7.80;;
74630;SDS011;63138;55.082;38.804;2023-09-19T11:54:55;11.57;;;7.97;;
74630;SDS011;63138;55.082;38.804;2023-09-19T11:57:23;10.00;;;6.70;;
74630;SDS011;63138;55.082;38.804;2023-09-19T11:59:53;12.60;;;7.15;;
74630;SDS011;63138;55.082;38.804;2023-09-19T12:02:27;10.85;;;7.13;;
74630;SDS011;63138;55.082;38.804;2023-09-19T12:05:06;11.32;;;7.72;;
74630;SDS011;63138;55.082;38.804;2023-09-19T12:07:41;13.13;;;7.90;;
74630;SDS011;63138;55.082;38.804;2023-09-19T12:10:11;10.43;;;7.07;;
74630;SDS011;63138;55.082;38.804;2023-09-19T12:12:46;14.57;;;8.40;;
74630;SDS011;63138;55.082;38.804;2023-09-19T12:15:23;13.73;;;6.75;;
74630;SDS011;63138;55.082;38.804;2023-09-19T12:18:29;10.00;;;6.55;;
74630;SDS011;63138;55.082;38.804;2023-09-19T12:20:58;12.93;;;8.30;;
74630;SDS011;63138;55.082;38.804;2023-09-19T12:23:26;10.82;;;8.05;;
74630;SDS011;63138;55.082;38.804;2023-09-19T12:25:54;12.73;;;7.75;;
74630;SDS011;63138;55.082;38.804;2023-09-19T12:28:23;9.15;;;6.80;;
74630;SDS011;63138;55.082;38.804;2023-09-19T12:31:06;11.68;;;8.07;;
74630;SDS011;63138;55.082;38.804;2023-09-19T12:33:33;9.70;;;7.17;;
74630;SDS011;63138;55.082;38.804;2023-09-19T12:35:59;13.23;;;7.75;;
74630;SDS011;63138;55.082;38.804;2023-09-19T12:38:26;16.98;;;7.88;;
74630;SDS011;63138;55.082;38.804;2023-09-19T12:41:01;10.60;;;7.20;;
74630;SDS011;63138;55.082;38.804;2023-09-19T12:43:30;11.73;;;8.10;;
74630;SDS011;63138;55.082;38.804;2023-09-19T12:46:05;12.03;;;7.73;;
74630;SDS011;63138;55.082;38.804;2023-09-19T12:48:31;11.60;;;7.85;;
74630;SDS011;63138;55.082;38.804;2023-09-19T12:53:36;10.73;;;7.65;;
74630;SDS011;63138;55.082;38.804;2023-09-19T12:56:14;11.00;;;7.23;;
74630;SDS011;63138;55.082;38.804;2023-09-19T12:58:52;11.35;;;7.50;;
74630;SDS011;63138;55.082;38.804;2023-09-19T13:01:24;14.27;;;7.35;;
74630;SDS011;63138;55.082;38.804;2023-09-19T13:07:02;10.93;;;7.15;;
74630;SDS011;63138;55.082;38.804;2023-09-19T13:09:28;10.87;;;7.57;;
74630;SDS011;63138;55.082;38.804;2023-09-19T13:12:00;10.77;;;6.93;;
74630;SDS011;63138;55.082;38.804;2023-09-19T13:14:28;13.13;;;7.70;;
74630;SDS011;63138;55.082;38.804;2023-09-19T13:17:15;8.60;;;6.10;;
74630;SDS011;63138;55.082;38.804;2023-09-19T13:19:45;10.30;;;7.45;;
74630;SDS011;63138;55.082;38.804;2023-09-19T13:25:19;15.82;;;8.15;;
74630;SDS011;63138;55.082;38.804;2023-09-19T13:27:50;11.27;;;7.18;;
74630;SDS011;63138;55.082;38.804;2023-09-19T13:30:19;14.52;;;7.57;;
74630;SDS011;63138;55.082;38.804;2023-09-19T13:32:46;15.75;;;8.27;;
74630;SDS011;63138;55.082;38.804;2023-09-19T13:35:13;11.43;;;8.03;;
74630;SDS011;63138;55.082;38.804;2023-09-19T13:37:40;9.55;;;6.97;;
74630;SDS011;63138;55.082;38.804;2023-09-19T13:40:11;15.73;;;6.82;;
74630;SDS011;63138;55.082;38.804;2023-09-19T13:42:39;15.60;;;7.40;;
74630;SDS011;63138;55.082;38.804;2023-09-19T13:45:08;13.65;;;7.85;;
74630;SDS011;63138;55.082;38.804;2023-09-19T13:47:39;10.70;;;6.73;;
74630;SDS011;63138;55.082;38.804;2023-09-19T13:50:05;12.05;;;7.50;;
74630;SDS011;63138;55.082;38.804;2023-09-19T13:52:32;12.75;;;8.18;;
74630;SDS011;63138;55.082;38.804;2023-09-19T13:54:58;13.73;;;8.00;;
74630;SDS011;63138;55.082;38.804;2023-09-19T13:57:25;12.43;;;7.68;;
74630;SDS011;63138;55.082;38.804;2023-09-19T13:59:53;11.67;;;7.07;;
74630;SDS011;63138;55.082;38.804;2023-09-19T14:02:44;14.15;;;8.57;;
74630;SDS011;63138;55.082;38.804;2023-09-19T14:05:11;13.52;;;7.95;;
74630;SDS011;63138;55.082;38.804;2023-09-19T14:07:40;12.98;;;8.23;;
74630;SDS011;63138;55.082;38.804;2023-09-19T14:10:07;14.68;;;7.40;;
74630;SDS011;63138;55.082;38.804;2023-09-19T14:12:36;11.43;;;7.47;;
74630;SDS011;63138;55.082;38.804;2023-09-19T14:15:10;11.30;;;7.40;;
74630;SDS011;63138;55.082;38.804;2023-09-19T14:17:37;12.00;;;7.43;;
74630;SDS011;63138;55.082;38.804;2023-09-19T14:20:04;15.10;;;7.18;;
74630;SDS011;63138;55.082;38.804;2023-09-19T14:22:32;13.35;;;7.30;;
74630;SDS011;63138;55.082;38.804;2023-09-19T14:24:58;14.00;;;7.63;;
74630;SDS011;63138;55.082;38.804;2023-09-19T14:27:25;14.35;;;8.13;;
74630;SDS011;63138;55.082;38.804;2023-09-19T14:29:51;12.15;;;7.20;;
74630;SDS011;63138;55.082;38.804;2023-09-19T14:32:17;12.13;;;7.13;;
74630;SDS011;63138;55.082;38.804;2023-09-19T14:34:43;12.90;;;7.83;;
74630;SDS011;63138;55.082;38.804;2023-09-19T14:37:09;15.13;;;8.13;;
74630;SDS011;63138;55.082;38.804;2023-09-19T14:39:36;12.68;;;7.25;;
74630;SDS011;63138;55.082;38.804;2023-09-19T14:42:05;12.68;;;8.15;;
74630;SDS011;63138;55.082;38.804;2023-09-19T14:44:30;12.53;;;7.60;;
74630;SDS011;63138;55.082;38.804;2023-09-19T14:46:56;11.43;;;7.50;;
74630;SDS011;63138;55.082;38.804;2023-09-19T14:49:22;11.55;;;7.65;;
74630;SDS011;63138;55.082;38.804;2023-09-19T14:51:48;14.03;;;7.33;;
74630;SDS011;63138;55.082;38.804;2023-09-19T14:54:14;12.90;;;7.60;;
74630;SDS011;63138;55.082;38.804;2023-09-19T14:56:42;11.35;;;7.82;;
74630;SDS011;63138;55.082;38.804;2023-09-19T14:59:08;11.18;;;8.07;;
74630;SDS011;63138;55.082;38.804;2023-09-19T15:01:36;13.10;;;8.10;;
74630;SDS011;63138;55.082;38.804;2023-09-19T15:04:02;17.05;;;8.00;;
74630;SDS011;63138;55.082;38.804;2023-09-19T15:06:30;13.18;;;8.20;;
74630;SDS011;63138;55.082;38.804;2023-09-19T15:08:56;12.65;;;8.45;;
74630;SDS011;63138;55.082;38.804;2023-09-19T15:11:23;19.80;;;8.87;;
74630;SDS011;63138;55.082;38.804;2023-09-19T15:13:51;21.65;;;10.63;;
74630;SDS011;63138;55.082;38.804;2023-09-19T15:16:17;17.90;;;9.77;;
74630;SDS011;63138;55.082;38.804;2023-09-19T15:18:45;16.98;;;9.32;;
74630;SDS011;63138;55.082;38.804;2023-09-19T15:21:13;20.35;;;11.50;;
74630;SDS011;63138;55.082;38.804;2023-09-19T15:23:40;25.90;;;14.27;;
74630;SDS011;63138;55.082;38.804;2023-09-19T15:26:09;22.85;;;13.82;;
74630;SDS011;63138;55.082;38.804;2023-09-19T15:28:37;25.63;;;14.57;;
74630;SDS011;63138;55.082;38.804;2023-09-19T15:31:04;25.52;;;15.73;;